Time;durP1;ratioP1;P1;durP2;ratioP2;P2;SDS_P1;SDS_P2;PMS_P1;PMS_P2;Temp;Humidity;BMP_temperature;BMP_pressure;BME280_temperature;BME280_humidity;BME280_pressure;Samples;Min_cycle;Max_cycle;Signal;HPM_P1;HPM_P2
2024/04/07 00:01:12;;;;;;;3.58;1.50;;;19.30;35.30;;;20.39;31.41;97371.78;5030032;28;20048;-39
2024/04/07 00:03:40;;;;;;;1.88;1.48;;;19.30;34.80;;;20.44;31.54;97369.22;5029092;28;20417;-39
2024/04/07 00:06:06;;;;;;;2.67;1.48;;;19.30;34.40;;;20.50;31.37;97356.66;5029905;28;20511;-39
2024/04/07 00:08:33;;;;;;;2.38;1.55;;;19.40;34.50;;;20.55;31.34;97363.00;5029685;28;20093;-39
2024/04/07 00:11:03;;;;;;;3.03;1.85;;;19.50;34.30;;;20.57;30.88;97354.66;5030008;28;20072;-39
2024/04/07 00:13:30;;;;;;;1.75;1.58;;;19.50;33.90;;;20.59;30.85;97364.22;5029230;28;20060;-39
2024/04/07 00:15:57;;;;;;;2.92;1.58;;;19.50;34.10;;;20.64;30.96;97367.03;5029519;28;20081;-39
2024/04/07 00:18:24;;;;;;;1.88;1.70;;;19.60;34.00;;;20.67;30.78;97360.34;5029726;28;20064;-39
2024/04/07 00:21:02;;;;;;;2.10;1.70;;;19.60;34.00;;;20.71;30.79;97355.31;5021756;28;20293;-39
2024/04/07 00:23:30;;;;;;;3.50;1.25;;;19.60;33.60;;;20.73;30.39;97351.31;5029129;28;20547;-39
2024/04/07 00:25:58;;;;;;;2.47;1.58;;;19.60;33.60;;;20.76;30.57;97353.56;5029515;28;20413;-39
2024/04/07 00:28:25;;;;;;;1.58;1.33;;;19.60;33.70;;;20.80;30.28;97356.59;5013086;28;20037;-39
2024/04/07 00:30:52;;;;;;;2.28;1.60;;;19.70;33.70;;;20.82;30.67;97343.66;4997677;28;20044;-39
2024/04/07 00:33:18;;;;;;;2.47;1.35;;;19.70;33.80;;;20.84;30.20;97353.22;5028633;28;20053;-39
2024/04/07 00:35:59;;;;;;;4.95;1.70;;;19.70;33.50;;;20.85;30.68;97348.63;5029337;28;20394;-39
2024/04/07 00:38:30;;;;;;;2.65;1.63;;;19.70;32.90;;;20.87;30.46;97351.91;5029721;28;20041;-39
2024/04/07 00:40:59;;;;;;;2.85;1.40;;;19.70;33.40;;;20.88;30.38;97352.72;5005469;28;20026;-38
2024/04/07 00:43:27;;;;;;;2.33;1.33;;;19.70;33.90;;;20.87;30.30;97345.69;5028942;28;20041;-38
2024/04/07 00:45:56;;;;;;;1.90;1.67;;;19.70;33.60;;;20.87;29.91;97340.25;5002006;28;20041;-39
2024/04/07 00:48:26;;;;;;;3.85;1.98;;;19.70;33.40;;;20.88;30.27;97339.19;5025461;28;20065;-38
2024/04/07 00:50:55;;;;;;;2.17;1.63;;;19.70;33.10;;;20.89;29.98;97347.09;5004802;28;20042;-39
2024/04/07 00:53:22;;;;;;;2.42;1.55;;;19.70;33.00;;;20.88;29.79;97345.44;5028670;28;20191;-39
2024/04/07 00:55:49;;;;;;;2.25;1.50;;;19.70;33.10;;;20.89;29.77;97343.56;5029180;28;20029;-39
2024/04/07 00:58:17;;;;;;;2.08;1.50;;;19.80;33.00;;;20.89;29.64;97341.66;5029125;28;20048;-39
2024/04/07 01:00:45;;;;;;;2.28;1.63;;;19.80;32.90;;;20.91;29.64;97346.84;5029184;28;20053;-39
2024/04/07 01:03:15;;;;;;;3.40;1.90;;;19.80;32.70;;;20.88;29.97;97337.34;5012485;28;20409;-40
2024/04/07 01:05:45;;;;;;;1.92;1.50;;;19.80;32.80;;;20.90;29.76;97334.38;5029140;28;20527;-39
2024/04/07 01:08:13;;;;;;;1.77;1.40;;;19.80;32.80;;;20.90;29.49;97346.03;5031080;28;20046;-40
2024/04/07 01:10:42;;;;;;;2.33;1.45;;;19.70;32.60;;;20.91;29.74;97346.84;5030288;28;20049;-39
2024/04/07 01:13:11;;;;;;;2.10;1.40;;;19.70;32.80;;;20.86;29.36;97342.16;5032680;28;20045;-39
2024/04/07 01:15:37;;;;;;;2.20;1.67;;;19.70;32.60;;;20.89;29.27;97349.78;5032992;28;20501;-39
2024/04/07 01:18:04;;;;;;;1.63;1.50;;;19.70;32.60;;;20.89;29.65;97344.38;5016525;28;20060;-39
2024/04/07 01:20:33;;;;;;;2.78;1.50;;;19.70;32.60;;;20.84;29.39;97360.50;5016240;28;20094;-39
2024/04/07 01:23:01;;;;;;;1.98;1.50;;;19.70;32.50;;;20.86;29.22;97361.09;5032471;28;20037;-39
2024/04/07 01:25:28;;;;;;;2.60;1.58;;;19.70;32.40;;;20.85;29.40;97367.56;5032841;28;20045;-39
2024/04/07 01:28:01;;;;;;;2.58;1.77;;;19.70;32.40;;;20.85;29.13;97362.94;5032729;28;20037;-39
2024/04/07 01:30:28;;;;;;;2.22;1.67;;;19.70;32.00;;;20.85;29.17;97360.25;5032617;28;20500;-39
2024/04/07 01:32:55;;;;;;;1.95;1.40;;;19.70;32.20;;;20.85;29.47;97367.56;5032213;28;20532;-39
2024/04/07 01:35:22;;;;;;;1.88;1.58;;;19.70;32.30;;;20.82;29.23;97363.44;5016217;28;20052;-39
2024/04/07 01:37:48;;;;;;;2.35;1.77;;;19.70;32.00;;;20.82;29.44;97370.72;5016147;28;20037;-39
2024/04/07 01:40:15;;;;;;;2.30;1.50;;;19.70;31.90;;;20.82;28.98;97368.84;5032658;28;20048;-39
2024/04/07 01:42:42;;;;;;;8.90;2.22;;;19.70;32.00;;;20.81;29.24;97361.78;5015458;28;20045;-38
2024/04/07 01:45:11;;;;;;;4.00;2.42;;;19.70;32.20;;;20.79;29.26;97368.50;5015723;28;20416;-38
2024/04/07 01:47:38;;;;;;;2.15;1.80;;;19.70;32.00;;;20.79;29.14;97377.41;5032326;28;20139;-38
2024/04/07 01:50:07;;;;;;;1.88;1.40;;;19.70;31.80;;;20.79;28.82;97366.59;5032163;28;20033;-46
2024/04/07 01:52:33;;;;;;;2.72;1.50;;;19.70;31.50;;;20.76;28.88;97369.78;5032089;28;20204;-38
2024/04/07 01:55:00;;;;;;;1.73;1.50;;;19.70;31.40;;;20.79;29.02;97372.00;5032255;28;20045;-38
2024/04/07 01:57:27;;;;;;;2.00;1.55;;;19.70;31.40;;;20.78;28.64;97362.25;5032060;28;20064;-39
2024/04/07 01:59:55;;;;;;;2.30;1.70;;;19.70;31.20;;;20.76;28.42;97356.25;5032162;28;20060;-39
2024/04/07 02:02:22;;;;;;;2.08;1.77;;;19.70;31.20;;;20.80;28.90;97368.25;5031948;28;20029;-39
2024/04/07 02:04:49;;;;;;;1.95;1.80;;;19.70;31.10;;;20.82;28.80;97365.28;5031950;28;20417;-39
2024/04/07 02:07:18;;;;;;;2.30;1.50;;;19.70;31.00;;;20.84;28.76;97361.31;5032211;28;20156;-39
2024/04/07 02:09:49;;;;;;;3.15;1.70;;;19.70;30.80;;;20.83;28.16;97346.13;5031776;28;20056;-39
2024/04/07 02:12:15;;;;;;;1.45;1.30;;;19.70;30.80;;;20.86;28.83;97352.97;5031699;28;20038;-39
2024/04/07 02:14:43;;;;;;;1.52;1.38;;;19.80;31.20;;;20.89;28.41;97352.50;5031087;28;20034;-39
2024/04/07 02:17:12;;;;;;;1.42;1.30;;;19.80;31.30;;;20.92;28.63;97356.59;5015611;28;20041;-38
2024/04/07 02:19:39;;;;;;;2.80;1.48;;;19.80;31.20;;;20.91;28.54;97353.06;5031268;28;20038;-38
2024/04/07 02:22:06;;;;;;;2.30;1.80;;;19.80;31.30;;;20.93;28.87;97360.97;5015450;28;20052;-39
2024/04/07 02:24:33;;;;;;;2.17;1.63;;;19.80;31.50;;;20.93;28.83;97355.56;5031565;28;20038;-38
2024/04/07 02:27:00;;;;;;;1.60;1.50;;;19.80;31.40;;;20.94;28.60;97363.44;5031642;28;20060;-38
2024/04/07 02:29:26;;;;;;;3.28;1.73;;;19.80;31.40;;;20.94;28.61;97360.75;5031608;28;20045;-38
2024/04/07 02:31:53;;;;;;;2.08;1.83;;;19.80;31.50;;;20.93;28.41;97361.78;5031591;28;20049;-38
2024/04/07 02:34:20;;;;;;;2.53;1.73;;;19.80;31.30;;;20.93;28.45;97369.09;5030783;28;20041;-39
2024/04/07 02:36:46;;;;;;;2.53;1.67;;;19.80;31.10;;;20.93;28.14;97378.03;5031389;28;20408;-39
2024/04/07 02:39:17;;;;;;;3.67;1.83;;;19.80;30.90;;;20.91;28.91;97379.31;5031415;28;20037;-39
2024/04/07 02:41:46;;;;;;;2.97;2.22;;;19.80;31.40;;;20.94;28.83;97384.28;5031425;28;20068;-38
2024/04/07 02:44:12;;;;;;;2.50;1.45;;;19.80;31.40;;;20.89;28.94;97395.78;5031004;28;20521;-38
2024/04/07 02:49:35;;;;;;;2.88;1.70;;;19.70;31.60;;;20.88;28.97;97394.16;5013724;28;20053;-38
2024/04/07 02:52:02;;;;;;;3.00;1.70;;;19.70;32.00;;;20.86;29.12;97393.56;5031158;28;20038;-38
2024/04/07 02:54:28;;;;;;;2.45;1.70;;;19.70;32.00;;;20.85;28.97;97394.59;5030761;28;20042;-38
2024/04/07 02:56:55;;;;;;;2.40;1.63;;;19.60;31.70;;;20.82;28.99;97395.91;5030989;28;20046;-38
2024/04/07 02:59:22;;;;;;;4.90;2.08;;;19.60;32.00;;;20.82;28.85;97401.31;5031071;28;20042;-39
2024/04/07 03:01:48;;;;;;;3.75;1.50;;;19.60;31.90;;;20.79;28.89;97392.84;5031131;28;20041;-38
2024/04/07 03:04:15;;;;;;;2.63;1.63;;;19.60;31.70;;;20.75;28.99;97397.06;5014246;28;20041;-38
2024/04/07 03:06:42;;;;;;;1.77;1.33;;;19.60;31.90;;;20.72;28.96;97392.09;5030846;28;20052;-38
2024/04/07 03:09:08;;;;;;;2.28;1.55;;;19.50;32.00;;;20.72;28.94;97408.34;5030719;28;20049;-38
2024/04/07 03:11:35;;;;;;;1.70;1.50;;;19.50;31.60;;;20.63;28.77;97408.69;5031009;28;20456;-38
2024/04/07 03:14:02;;;;;;;2.10;1.65;;;19.50;31.50;;;20.63;28.79;97405.97;5029615;28;20041;-38
2024/04/07 03:16:29;;;;;;;2.75;1.30;;;19.50;31.50;;;20.62;28.77;97406.19;5030895;28;20046;-38
2024/04/07 03:18:55;;;;;;;2.53;1.70;;;19.50;31.20;;;20.64;28.72;97417.59;5030673;28;20049;-38
2024/04/07 03:21:23;;;;;;;2.92;1.75;;;19.50;31.20;;;20.65;28.53;97428.19;5030868;28;20037;-38
2024/04/07 03:23:50;;;;;;;6.07;1.60;;;19.50;31.00;;;20.61;28.20;97437.03;5030171;28;20041;-38
2024/04/07 03:26:16;;;;;;;2.00;1.45;;;19.50;31.00;;;20.59;28.35;97431.84;5013880;28;20076;-38
2024/04/07 03:28:43;;;;;;;3.13;1.33;;;19.40;31.10;;;20.58;28.32;97437.44;5030367;28;20053;-38
2024/04/07 03:31:10;;;;;;;3.15;1.35;;;19.40;31.10;;;20.56;28.45;97437.66;5029760;28;20515;-38
2024/04/07 03:33:38;;;;;;;2.25;1.77;;;19.40;31.00;;;20.57;28.38;97450.13;5030172;28;20057;-38
2024/04/07 03:36:05;;;;;;;4.75;1.92;;;19.50;30.70;;;20.55;27.95;97460.38;5013706;28;20033;-38
2024/04/07 03:38:32;;;;;;;2.17;1.30;;;19.40;30.50;;;20.55;28.13;97456.81;5030450;28;20068;-38
2024/04/07 03:41:03;;;;;;;2.13;1.60;;;19.40;30.80;;;20.53;28.07;97464.31;5030209;28;20044;-38
2024/04/07 03:43:30;;;;;;;2.33;1.40;;;19.40;30.90;;;20.50;28.31;97462.09;5029804;28;20041;-39
2024/04/07 03:46:03;;;;;;;1.73;1.60;;;19.30;31.20;;;20.49;28.66;97473.97;5030256;28;20045;-39
2024/04/07 03:48:30;;;;;;;2.58;1.70;;;19.30;31.50;;;20.34;28.85;97475.19;5030393;28;20052;-39
2024/04/07 03:50:57;;;;;;;2.17;1.30;;;19.10;31.80;;;20.37;28.87;97480.13;5029525;28;20056;-39
2024/04/07 03:53:28;;;;;;;4.68;1.48;;;19.10;32.00;;;20.38;28.65;97481.78;5029811;28;20497;-39
2024/04/07 03:55:54;;;;;;;3.20;1.85;;;19.00;31.60;;;20.35;28.92;97490.34;5029963;28;20041;-39
2024/04/07 03:58:21;;;;;;;1.85;1.50;;;18.90;32.20;;;20.29;28.64;97496.66;5013670;28;20037;-38
2024/04/07 04:00:48;;;;;;;2.72;1.40;;;19.00;31.90;;;20.21;28.48;97491.56;5029932;28;20416;-38
2024/04/07 04:03:15;;;;;;;2.90;1.98;;;18.90;31.80;;;20.21;28.54;97499.69;5029523;28;20037;-38
2024/04/07 04:05:41;;;;;;;3.97;1.77;;;18.90;31.80;;;20.24;28.59;97501.94;5013542;28;20437;-38
2024/04/07 04:08:09;;;;;;;2.70;1.73;;;18.90;31.60;;;20.24;28.73;97500.06;5029657;28;20380;-38
2024/04/07 04:10:40;;;;;;;2.17;1.85;;;19.00;31.40;;;20.23;28.44;97514.63;5027342;28;20057;-38
2024/04/07 04:13:06;;;;;;;2.83;1.83;;;19.00;30.80;;;20.21;28.55;97519.44;5012932;28;20512;-38
2024/04/07 04:15:35;;;;;;;2.22;1.80;;;18.90;31.00;;;20.23;28.60;97520.03;5029824;28;20037;-38
2024/04/07 04:18:04;;;;;;;2.65;1.98;;;19.00;31.30;;;20.27;28.64;97523.09;5029447;28;20049;-39
2024/04/07 04:20:31;;;;;;;3.67;1.92;;;18.90;31.60;;;20.24;28.60;97528.97;5030056;28;20038;-39
2024/04/07 04:22:58;;;;;;;2.75;1.45;;;18.90;31.60;;;20.24;29.33;97531.69;5029291;28;20041;-38
2024/04/07 04:25:25;;;;;;;3.83;1.60;;;18.90;32.70;;;20.26;29.29;97534.97;5029754;28;20041;-38
2024/04/07 04:27:52;;;;;;;2.60;1.58;;;18.80;32.60;;;20.23;28.82;97543.53;5029476;28;20053;-38
2024/04/07 04:30:18;;;;;;;1.83;1.52;;;18.80;31.90;;;20.21;28.60;97549.16;5029443;28;20390;-38
2024/04/07 04:32:49;;;;;;;1.85;1.50;;;18.80;31.80;;;20.24;28.64;97556.00;5029191;28;20038;-38
2024/04/07 04:35:16;;;;;;;4.15;1.90;;;18.90;32.10;;;20.24;28.78;97551.41;5021517;28;20432;-38
2024/04/07 04:37:42;;;;;;;2.38;1.60;;;18.90;32.10;;;20.29;29.38;97553.44;5029633;28;20040;-38
2024/04/07 04:40:11;;;;;;;3.35;1.60;;;18.90;33.10;;;20.33;28.83;97560.03;5029121;28;20057;-37
2024/04/07 04:42:40;;;;;;;2.28;1.60;;;18.90;32.20;;;20.33;29.46;97554.63;5028427;28;20052;-38
2024/04/07 04:45:08;;;;;;;3.47;1.92;;;18.90;33.00;;;20.35;28.82;97563.34;5029271;28;20049;-38
2024/04/07 04:47:35;;;;;;;3.15;1.55;;;18.80;32.70;;;20.34;30.11;97563.59;5029446;28;20041;-38
2024/04/07 04:50:02;;;;;;;4.30;1.88;;;18.80;33.90;;;20.30;28.82;97565.06;5029061;28;20068;-37
2024/04/07 04:52:32;;;;;;;2.15;1.65;;;18.80;32.50;;;20.26;29.07;97565.53;5029091;28;20049;-36
2024/04/07 04:54:59;;;;;;;3.58;1.90;;;18.70;32.60;;;20.24;28.62;97580.34;5029140;28;20041;-37
2024/04/07 04:57:26;;;;;;;2.88;1.52;;;18.70;32.10;;;20.20;28.49;97584.50;5029259;28;20049;-37
2024/04/07 04:59:52;;;;;;;3.60;1.88;;;18.70;31.50;;;20.13;28.50;97581.88;5029316;28;20044;-37
2024/04/07 05:02:19;;;;;;;3.92;2.00;;;18.70;31.60;;;20.10;28.56;97586.91;5012613;28;20516;-38
2024/04/07 05:04:46;;;;;;;4.35;1.98;;;18.70;31.50;;;20.06;28.61;97595.47;5029085;28;20068;-37
2024/04/07 05:07:12;;;;;;;5.88;2.17;;;18.70;31.40;;;20.05;28.01;97595.69;5029309;28;20049;-37
2024/04/07 05:09:39;;;;;;;7.22;2.03;;;18.80;30.80;;;20.06;28.41;97605.44;5029251;28;20046;-37
2024/04/07 05:12:06;;;;;;;7.00;1.95;;;18.80;30.70;;;19.97;28.54;97607.63;5012262;28;20054;-38
2024/04/07 05:14:33;;;;;;;5.22;2.10;;;18.70;31.50;;;19.98;28.98;97621.94;5027990;28;20049;-37
2024/04/07 05:16:59;;;;;;;5.47;1.63;;;18.60;32.30;;;19.92;29.27;97625.53;5028610;28;20105;-37
2024/04/07 05:19:26;;;;;;;3.58;1.80;;;18.50;32.70;;;19.90;29.53;97628.47;5029412;28;20037;-37
2024/04/07 05:21:53;;;;;;;7.22;2.63;;;18.50;33.40;;;19.92;29.73;97645.28;5029025;28;20086;-36
2024/04/07 05:24:21;;;;;;;4.93;2.08;;;18.40;33.90;;;19.91;30.53;97635.53;5012412;28;20037;-37
2024/04/07 05:26:48;;;;;;;3.67;1.80;;;18.40;34.90;;;19.87;30.70;97634.28;5028847;28;20045;-36
2024/04/07 05:29:14;;;;;;;3.20;1.70;;;18.30;35.40;;;19.82;30.89;97639.53;5028904;28;20045;-37
2024/04/07 05:31:42;;;;;;;4.22;2.08;;;18.20;35.70;;;19.74;31.10;97639.81;5029072;28;20042;-37
2024/04/07 05:34:08;;;;;;;3.55;1.80;;;18.10;36.70;;;19.68;31.69;97625.28;5028556;28;20052;-37
2024/04/07 05:36:35;;;;;;;4.88;1.73;;;17.90;37.30;;;19.64;31.91;97641.09;5028893;28;20064;-37
2024/04/07 05:39:02;;;;;;;4.78;2.28;;;17.90;37.70;;;19.61;31.76;97638.00;5028966;28;20500;-36
2024/04/07 05:41:28;;;;;;;4.72;1.35;;;17.80;37.20;;;19.55;31.67;97645.13;5029042;28;20037;-36
2024/04/07 05:43:55;;;;;;;2.90;1.70;;;17.80;37.20;;;19.52;31.96;97658.22;5028412;28;20053;-36
2024/04/07 05:46:21;;;;;;;2.40;2.13;;;17.80;37.60;;;19.48;32.25;97649.72;5029056;28;20053;-36
2024/04/07 05:48:48;;;;;;;6.63;2.22;;;17.70;38.20;;;19.50;32.24;97649.50;5028502;28;20049;-36
2024/04/07 05:51:15;;;;;;;2.40;1.33;;;17.80;38.00;;;19.51;31.84;97651.19;5028901;28;20046;-36
2024/04/07 05:53:42;;;;;;;3.90;1.98;;;17.80;37.30;;;19.51;31.91;97653.88;5029346;28;20045;-36
2024/04/07 05:56:12;;;;;;;5.68;2.67;;;17.90;36.90;;;19.47;31.58;97675.09;5032040;28;20041;-37
2024/04/07 05:58:39;;;;;;;8.82;2.53;;;17.90;36.50;;;19.46;31.69;97673.41;5032472;28;20425;-37
2024/04/07 06:01:07;;;;;;;4.15;2.30;;;17.90;36.50;;;19.36;31.98;97673.06;5032289;28;20037;-36
2024/04/07 06:03:34;;;;;;;3.65;1.80;;;17.90;36.60;;;19.39;31.89;97665.38;5015695;28;20045;-36
2024/04/07 06:06:02;;;;;;;6.72;2.15;;;17.90;36.60;;;19.46;31.97;97673.41;5032088;28;20048;-37
2024/04/07 06:08:29;;;;;;;5.20;2.63;;;18.00;36.70;;;19.51;31.80;97679.00;5015639;28;20050;-36
2024/04/07 06:10:55;;;;;;;7.03;2.00;;;18.10;36.50;;;19.54;32.25;97693.94;5032138;28;20053;-37
2024/04/07 06:13:22;;;;;;;9.50;3.17;;;18.20;36.70;;;19.56;32.28;97694.53;5015409;28;20045;-36
2024/04/07 06:15:49;;;;;;;4.35;1.83;;;18.20;36.80;;;19.51;32.66;97688.97;5031105;28;20064;-36
2024/04/07 06:18:15;;;;;;;10.20;1.85;;;18.20;37.40;;;19.47;33.23;97691.28;5031939;28;20049;-35
2024/04/07 06:20:43;;;;;;;6.65;2.30;;;18.10;38.50;;;19.41;33.91;97703.78;5015488;28;20045;-36
2024/04/07 06:23:09;;;;;;;2.88;2.10;;;18.10;39.30;;;19.34;34.13;97704.84;5015023;28;20048;-36
2024/04/07 06:25:37;;;;;;;5.55;2.05;;;18.10;39.50;;;19.34;34.33;97702.97;5015477;28;20140;-36
2024/04/07 06:28:04;;;;;;;6.15;2.50;;;18.10;39.50;;;19.26;34.53;97706.75;5031673;28;20045;-36
2024/04/07 06:30:30;;;;;;;8.10;1.80;;;18.10;40.20;;;19.39;34.70;97699.63;5031931;28;20068;-36
2024/04/07 06:32:57;;;;;;;4.57;1.70;;;18.10;39.60;;;19.31;34.80;97695.31;5031409;28;20046;-36
2024/04/07 06:35:24;;;;;;;7.05;2.17;;;18.20;39.50;;;19.42;34.71;97705.41;5015025;28;20034;-36
2024/04/07 06:37:50;;;;;;;4.75;3.22;;;18.40;39.10;;;19.53;34.71;97717.41;5031538;28;20041;-36
2024/04/07 06:40:17;;;;;;;3.42;1.92;;;18.50;39.70;;;19.55;35.03;97728.81;5031329;28;20033;-37
2024/04/07 06:42:44;;;;;;;2.92;2.03;;;18.50;40.00;;;19.66;35.04;97733.53;5014430;28;20493;-36
2024/04/07 06:45:12;;;;;;;5.43;1.80;;;18.60;40.00;;;19.67;35.32;97723.53;5026378;28;20056;-36
2024/04/07 06:47:39;;;;;;;6.72;1.92;;;18.70;40.10;;;19.66;35.67;97730.00;5030643;28;20041;-37
2024/04/07 06:50:06;;;;;;;5.25;1.92;;;18.70;40.50;;;19.73;35.53;97727.28;5030383;28;20398;-36
2024/04/07 06:52:33;;;;;;;3.60;1.80;;;18.70;41.20;;;19.90;35.23;97735.69;5029851;28;20428;-36
2024/04/07 06:54:59;;;;;;;7.10;2.42;;;18.80;40.30;;;20.02;35.56;97740.16;5030352;28;20473;-36
2024/04/07 06:57:26;;;;;;;8.00;2.25;;;18.90;41.20;;;20.09;35.35;97748.22;5030420;28;20037;-36
2024/04/07 06:59:55;;;;;;;5.93;2.28;;;19.00;41.00;;;20.16;35.33;97758.97;5029260;28;20041;-36
2024/04/07 07:02:22;;;;;;;6.28;2.33;;;19.00;40.20;;;20.29;35.10;97758.06;5029658;28;20050;-36
2024/04/07 07:04:49;;;;;;;4.68;1.80;;;19.10;40.20;;;20.32;35.18;97760.34;5030050;28;20042;-36
2024/04/07 07:07:15;;;;;;;5.32;1.95;;;19.20;40.30;;;20.43;35.50;97754.19;5030140;28;20050;-36
2024/04/07 07:09:42;;;;;;;4.68;1.88;;;19.30;40.60;;;20.54;34.82;97747.22;5013701;28;20604;-36
2024/04/07 07:12:09;;;;;;;2.72;1.58;;;19.50;40.00;;;20.57;35.42;97750.31;5029228;28;20057;-36
2024/04/07 07:14:37;;;;;;;5.38;3.00;;;19.40;40.40;;;20.63;35.33;97756.75;5029236;28;20053;-36
2024/04/07 07:17:04;;;;;;;3.08;1.98;;;19.50;40.50;;;20.72;34.98;97768.09;5014690;28;20049;-36
2024/04/07 07:19:31;;;;;;;5.45;2.47;;;19.60;40.20;;;20.65;35.41;97773.56;5022065;28;20037;-36
2024/04/07 07:21:58;;;;;;;4.57;2.13;;;19.60;40.00;;;20.56;34.93;97773.00;5029807;28;20056;-36
2024/04/07 07:24:24;;;;;;;8.18;2.20;;;19.50;39.80;;;20.65;35.00;97768.16;5028921;28;20393;-36
2024/04/07 07:26:51;;;;;;;4.82;2.00;;;19.50;40.10;;;20.67;35.13;97785.00;5029872;28;20045;-36
2024/04/07 07:29:18;;;;;;;3.03;1.60;;;19.50;40.30;;;20.69;35.29;97784.78;5029559;28;20060;-36
2024/04/07 07:31:45;;;;;;;5.03;2.95;;;19.50;40.40;;;20.79;35.30;97783.22;4996866;28;20045;-37
2024/04/07 07:34:11;;;;;;;8.98;2.33;;;19.60;40.70;;;20.90;35.64;97787.06;5028595;28;20100;-36
2024/04/07 07:36:38;;;;;;;5.03;2.30;;;19.70;41.10;;;20.94;35.92;97803.69;5029243;28;20045;-36
2024/04/07 07:39:05;;;;;;;4.38;2.00;;;19.80;41.20;;;21.04;35.66;97801.28;5029338;28;20041;-36
2024/04/07 07:41:32;;;;;;;5.80;1.70;;;19.80;41.70;;;21.08;36.00;97810.59;5029519;28;20052;-36
2024/04/07 07:43:59;;;;;;;4.75;2.03;;;19.90;41.70;;;20.96;36.01;97810.53;5029149;28;20044;-36
2024/04/07 07:46:26;;;;;;;5.03;1.80;;;19.80;41.30;;;20.98;35.54;97813.00;5029089;28;20045;-36
2024/04/07 07:48:52;;;;;;;5.75;1.67;;;19.80;41.30;;;20.90;36.05;97824.09;5029483;28;20048;-37
2024/04/07 07:51:19;;;;;;;3.30;2.08;;;19.70;41.90;;;20.90;36.13;97834.91;5028767;28;20038;-36
2024/04/07 07:53:48;;;;;;;5.97;2.47;;;19.60;42.00;;;20.75;36.33;97838.00;5028888;28;20417;-36
2024/04/07 07:56:15;;;;;;;5.05;2.17;;;19.60;41.90;;;20.71;35.97;97845.72;5028893;28;20104;-37
2024/04/07 07:58:41;;;;;;;6.72;1.73;;;19.50;41.90;;;20.62;36.21;97855.97;5029045;28;20049;-37
2024/04/07 08:01:08;;;;;;;5.90;1.90;;;19.50;42.50;;;20.51;36.25;97847.72;5029048;28;20521;-36
2024/04/07 08:03:35;;;;;;;3.78;2.05;;;19.30;42.40;;;20.47;37.11;97852.72;5020173;28;20501;-36
2024/04/07 08:06:03;;;;;;;3.40;1.83;;;19.30;43.00;;;20.39;37.25;97856.53;5028965;28;20041;-36
2024/04/07 08:08:30;;;;;;;5.13;2.20;;;19.30;42.90;;;20.33;37.34;97853.88;5028996;28;20041;-36
2024/04/07 08:11:00;;;;;;;3.85;1.88;;;19.20;43.50;;;20.14;37.91;97863.78;5012598;28;20037;-36
2024/04/07 08:13:27;;;;;;;3.78;1.85;;;19.00;44.10;;;20.15;37.68;97857.34;5028014;28;20041;-36
2024/04/07 08:15:54;;;;;;;10.07;2.22;;;19.10;44.10;;;20.18;37.84;97848.78;5013823;28;20405;-36
2024/04/07 08:18:21;;;;;;;8.85;2.30;;;19.10;44.60;;;20.18;38.28;97860.44;5029759;28;20050;-36
2024/04/07 08:20:47;;;;;;;5.03;2.05;;;19.10;45.10;;;20.24;38.28;97859.56;5029758;28;20049;-36
2024/04/07 08:23:18;;;;;;;6.30;1.98;;;19.10;44.80;;;20.35;38.18;97868.00;5029433;28;20037;-36
2024/04/07 08:25:45;;;;;;;5.60;1.83;;;19.20;44.50;;;20.37;38.00;97877.56;5029715;28;20131;-36
2024/04/07 08:28:12;;;;;;;3.03;1.80;;;19.30;44.80;;;20.41;38.03;97875.25;5029463;28;20041;-36
2024/04/07 08:30:38;;;;;;;5.25;2.38;;;19.20;44.40;;;20.40;37.94;97881.72;5029460;28;20045;-36
2024/04/07 08:33:05;;;;;;;5.20;2.90;;;19.30;44.30;;;20.47;38.06;97877.06;5029331;28;20528;-36
2024/04/07 08:35:32;;;;;;;4.32;1.88;;;19.20;44.10;;;20.58;37.67;97870.13;5029559;28;20064;-37
2024/04/07 08:37:58;;;;;;;9.68;2.55;;;19.40;43.60;;;20.57;37.50;97873.88;5029545;28;20047;-36
2024/04/07 08:40:25;;;;;;;4.18;2.90;;;19.40;43.40;;;20.63;36.82;97868.47;5029444;28;20041;-36
2024/04/07 08:42:52;;;;;;;3.80;1.88;;;19.50;43.20;;;20.67;36.85;97865.34;5028841;28;20038;-36
2024/04/07 08:45:21;;;;;;;4.65;1.90;;;19.50;43.00;;;20.68;37.03;97875.09;5018830;28;20045;-36
2024/04/07 08:47:55;;;;;;;6.45;2.03;;;19.50;43.20;;;20.72;37.30;97882.53;5024677;28;20053;-36
2024/04/07 08:50:24;;;;;;;4.65;2.28;;;19.50;43.50;;;20.78;37.53;97884.38;5025524;28;20056;-37
2024/04/07 08:52:55;;;;;;;7.25;3.22;;;19.60;44.10;;;20.82;37.42;97891.00;5009285;28;20045;-36
2024/04/07 08:55:23;;;;;;;5.30;2.20;;;19.60;43.80;;;20.80;37.52;97895.81;5025440;28;20057;-37
2024/04/07 08:57:53;;;;;;;5.43;1.85;;;19.60;44.20;;;20.82;37.98;97888.28;5025804;28;20034;-36
2024/04/07 09:00:23;;;;;;;6.03;2.30;;;19.70;44.50;;;20.71;37.97;97877.34;5009819;28;20056;-36
2024/04/07 09:02:52;;;;;;;4.95;1.85;;;19.60;44.10;;;20.82;37.95;97871.19;5025774;28;20033;-36
2024/04/07 09:05:19;;;;;;;5.05;1.50;;;19.70;44.10;;;20.95;37.40;97878.38;5009033;28;20045;-36
2024/04/07 09:07:47;;;;;;;6.38;2.03;;;19.80;43.60;;;20.96;37.04;97880.06;5025613;28;20052;-36
2024/04/07 09:10:13;;;;;;;4.15;1.80;;;19.80;43.30;;;21.01;37.12;97877.50;5025623;28;20053;-36
2024/04/07 09:12:40;;;;;;;7.15;3.30;;;19.90;43.30;;;21.13;37.17;97891.97;5024756;28;20501;-36
2024/04/07 09:15:08;;;;;;;7.60;2.33;;;20.00;43.00;;;21.20;36.92;97887.31;5025007;28;20053;-36
2024/04/07 09:17:35;;;;;;;3.58;2.42;;;20.10;43.20;;;21.31;37.00;97901.16;5025260;28;20048;-36
2024/04/07 09:20:06;;;;;;;3.78;2.08;;;20.20;42.90;;;21.29;37.15;97903.28;5024629;28;20049;-37
2024/04/07 09:22:33;;;;;;;5.95;1.92;;;20.10;42.90;;;21.23;36.87;97896.88;5024710;28;20042;-36
2024/04/07 09:25:02;;;;;;;4.43;2.00;;;20.10;43.00;;;21.25;36.88;97892.06;5009402;28;20041;-36
2024/04/07 09:27:29;;;;;;;4.65;2.03;;;20.10;42.70;;;21.19;37.06;97885.66;5025089;28;20508;-36
2024/04/07 09:29:56;;;;;;;5.22;2.08;;;20.10;42.90;;;21.21;37.20;97888.16;5028067;28;20417;-36
2024/04/07 09:32:24;;;;;;;6.80;2.20;;;20.10;43.30;;;21.31;36.91;97898.47;5028427;28;20052;-36
2024/04/07 09:34:50;;;;;;;6.97;2.67;;;20.10;43.50;;;21.32;36.96;97887.38;5028567;28;20046;-36
2024/04/07 09:37:17;;;;;;;8.02;2.25;;;20.20;43.00;;;21.42;37.02;97886.88;5028368;28;20033;-36
2024/04/07 09:39:44;;;;;;;7.55;3.20;;;20.20;43.20;;;21.44;37.42;97887.50;5028189;28;20061;-37
2024/04/07 09:42:18;;;;;;;5.05;2.30;;;20.30;44.10;;;21.46;37.99;97879.16;5028077;28;20053;-36
2024/04/07 09:44:47;;;;;;;5.07;2.10;;;20.40;44.50;;;21.49;37.66;97876.81;5012392;28;20061;-37
2024/04/07 09:47:14;;;;;;;5.15;2.05;;;20.30;44.10;;;21.51;37.62;97882.84;5026616;28;20509;-36
2024/04/07 09:49:42;;;;;;;3.50;2.20;;;20.40;44.00;;;21.53;37.95;97899.69;5011983;28;20046;-37
2024/04/07 09:52:14;;;;;;;3.55;1.55;;;20.30;44.30;;;21.58;37.57;97886.31;5028491;28;20034;-36
2024/04/07 09:54:47;;;;;;;7.97;2.30;;;20.40;44.00;;;21.55;37.33;97886.75;5011583;28;20038;-36
2024/04/07 09:57:16;;;;;;;4.22;2.00;;;20.40;43.60;;;21.60;37.26;97896.94;5028564;28;20060;-36
2024/04/07 09:59:45;;;;;;;6.03;2.03;;;20.40;43.90;;;21.54;37.93;97887.81;5028305;28;20433;-36
2024/04/07 10:02:13;;;;;;;6.50;2.00;;;20.40;44.50;;;21.51;38.21;97880.13;5027921;28;20037;-36
2024/04/07 10:04:41;;;;;;;3.67;1.95;;;20.40;44.70;;;21.51;38.08;97882.84;5028578;28;20041;-36
2024/04/07 10:07:13;;;;;;;4.80;1.90;;;20.40;44.80;;;21.46;38.32;97901.66;5028719;28;20128;-36
2024/04/07 10:09:41;;;;;;;6.30;2.40;;;20.30;44.60;;;21.45;38.36;97888.34;5028618;28;20045;-36
2024/04/07 10:12:09;;;;;;;5.95;2.53;;;20.40;44.60;;;21.60;37.56;97877.97;5012152;28;20060;-37
2024/04/07 10:14:40;;;;;;;3.92;1.80;;;20.50;43.80;;;21.65;38.07;97864.56;5011020;28;20053;-37
2024/04/07 10:17:09;;;;;;;7.93;3.15;;;20.50;44.40;;;21.77;38.00;97876.31;5028366;28;20501;-36
2024/04/07 10:19:46;;;;;;;6.40;2.65;;;20.60;44.20;;;21.87;37.75;97870.34;5028246;28;20042;-36
2024/04/07 10:22:15;;;;;;;4.30;2.47;;;20.70;43.90;;;21.96;37.36;97879.78;5028145;28;20041;-36
2024/04/07 10:24:46;;;;;;;6.88;3.55;;;20.80;43.50;;;22.02;37.33;97876.19;5010937;28;20064;-36